Time;durP1;ratioP1;P1;durP2;ratioP2;P2;SDS_P1;SDS_P2;PMS_P1;PMS_P2;Temp;Humidity;BMP_temperature;BMP_pressure;BME280_temperature;BME280_humidity;BME280_pressure;Samples;Min_cycle;Max_cycle;Signal;HPM_P1;HPM_P2
2022/09/07 00:02:07;;;;;;;4.32;1.73;;;;;;;;;;5052051;28;20496;-69
2022/09/07 00:04:34;;;;;;;3.10;1.65;;;;;;;;;;5051963;28;20060;-69
2022/09/07 00:07:00;;;;;;;3.10;1.92;;;;;;;;;;5051967;28;20471;-69
2022/09/07 00:09:27;;;;;;;2.95;1.83;;;;;;;;;;5062843;28;20061;-70
2022/09/07 00:11:54;;;;;;;2.15;1.58;;;;;;;;;;5076922;28;20039;-70
2022/09/07 00:14:20;;;;;;;2.50;1.75;;;;;;;;;;5077158;28;20036;-70
2022/09/07 00:16:47;;;;;;;2.90;1.70;;;;;;;;;;5077042;28;20059;-69
2022/09/07 00:19:14;;;;;;;3.08;1.50;;;;;;;;;;5076817;28;20025;-69
2022/09/07 00:21:40;;;;;;;2.90;1.55;;;;;;;;;;5077244;28;20025;-69
2022/09/07 00:24:07;;;;;;;2.90;1.40;;;;;;;;;;5076919;28;20067;-68
2022/09/07 00:26:34;;;;;;;3.88;1.85;;;;;;;;;;5077002;28;20032;-68
2022/09/07 00:29:02;;;;;;;3.42;1.38;;;;;;;;;;5076693;28;20029;-69
2022/09/07 00:31:29;;;;;;;3.45;1.80;;;;;;;;;;5076876;28;20088;-68
2022/09/07 00:33:57;;;;;;;2.88;1.50;;;;;;;;;;5078657;28;20064;-68
2022/09/07 00:36:24;;;;;;;3.65;1.60;;;;;;;;;;5080806;28;20032;-69
2022/09/07 00:38:51;;;;;;;4.47;1.67;;;;;;;;;;5080467;28;20032;-68
2022/09/07 00:41:19;;;;;;;2.65;1.63;;;;;;;;;;5080795;28;20076;-69
2022/09/07 00:43:48;;;;;;;2.05;1.52;;;;;;;;;;5080649;28;20200;-69
2022/09/07 00:46:23;;;;;;;4.20;1.73;;;;;;;;;;5080779;28;20029;-69
2022/09/07 00:48:58;;;;;;;5.10;1.60;;;;;;;;;;5080138;28;20087;-69
2022/09/07 00:51:38;;;;;;;3.92;1.83;;;;;;;;;;5080769;28;20029;-69
2022/09/07 00:54:07;;;;;;;2.45;1.38;;;;;;;;;;5047544;28;20033;-70
2022/09/07 00:56:38;;;;;;;3.25;1.42;;;;;;;;;;5047370;28;20048;-69
2022/09/07 00:59:05;;;;;;;5.70;1.63;;;;;;;;;;5063329;28;20089;-70
2022/09/07 01:01:32;;;;;;;4.25;1.60;;;;;;;;;;5043601;28;20335;-70
2022/09/07 01:03:59;;;;;;;4.53;1.42;;;;;;;;;;5038862;28;20041;-70
2022/09/07 01:06:37;;;;;;;4.30;1.90;;;;;;;;;;5038634;28;20492;-69
2022/09/07 01:09:15;;;;;;;2.83;2.03;;;;;;;;;;5038430;28;20049;-70
2022/09/07 01:11:44;;;;;;;5.55;1.98;;;;;;;;;;5038584;28;20060;-70
2022/09/07 01:14:11;;;;;;;3.22;1.77;;;;;;;;;;5056321;28;20056;-70
2022/09/07 01:16:47;;;;;;;2.30;1.80;;;;;;;;;;5056090;28;20423;-70
2022/09/07 01:19:39;;;;;;;3.08;1.55;;;;;;;;;;5037887;28;20049;-69
2022/09/07 01:22:43;;;;;;;6.47;1.90;;;;;;;;;;5055730;28;20060;-70
2022/09/07 01:25:22;;;;;;;3.05;1.50;;;;;;;;;;5056043;28;20049;-70
2022/09/07 01:28:04;;;;;;;3.15;1.73;;;;;;;;;;5022896;28;20060;-69
2022/09/07 01:30:33;;;;;;;3.63;1.80;;;;;;;;;;5039679;28;20488;-70
2022/09/07 01:33:22;;;;;;;4.00;2.00;;;;;;;;;;5021883;28;20049;-70
2022/09/07 01:36:23;;;;;;;2.92;1.98;;;;;;;;;;5038093;28;20135;-70
2022/09/07 01:38:53;;;;;;;2.78;2.55;;;;;;;;;;5055172;28;20045;-70
2022/09/07 01:41:37;;;;;;;3.75;1.90;;;;;;;;;;5054929;28;20053;-70
2022/09/07 01:44:17;;;;;;;7.07;2.65;;;;;;;;;;5036734;28;20041;-70
2022/09/07 01:47:13;;;;;;;3.10;2.33;;;;;;;;;;5037072;28;20496;-70
2022/09/07 01:49:46;;;;;;;4.90;2.22;;;;;;;;;;5023799;28;20099;-69
2022/09/07 01:52:30;;;;;;;3.75;2.60;;;;;;;;;;5054684;28;20068;-69
2022/09/07 01:55:06;;;;;;;3.67;2.80;;;;;;;;;;5021607;28;20126;-69
2022/09/07 01:57:36;;;;;;;4.20;2.30;;;;;;;;;;5020863;28;20443;-70
2022/09/07 02:00:11;;;;;;;5.03;2.92;;;;;;;;;;5037061;28;20463;-70
2022/09/07 02:02:47;;;;;;;6.68;3.20;;;;;;;;;;5054418;28;20071;-70
2022/09/07 02:05:22;;;;;;;6.57;3.50;;;;;;;;;;5038333;28;20079;-70
2022/09/07 02:07:58;;;;;;;5.30;3.10;;;;;;;;;;5021424;28;20057;-69
2022/09/07 02:10:34;;;;;;;4.57;3.10;;;;;;;;;;5036764;28;20424;-70
2022/09/07 02:13:05;;;;;;;5.25;3.13;;;;;;;;;;5054206;28;20496;-70
2022/09/07 02:15:45;;;;;;;7.15;3.05;;;;;;;;;;5054091;28;20056;-70
2022/09/07 02:18:13;;;;;;;4.18;3.15;;;;;;;;;;5035969;28;20049;-70
2022/09/07 02:20:43;;;;;;;6.05;3.28;;;;;;;;;;5053561;28;20067;-70
2022/09/07 02:23:16;;;;;;;5.97;3.13;;;;;;;;;;5036258;28;20052;-70
2022/09/07 02:25:46;;;;;;;4.47;2.80;;;;;;;;;;5036618;28;20052;-70
2022/09/07 02:28:18;;;;;;;6.50;3.60;;;;;;;;;;5019693;28;20556;-70
2022/09/07 02:30:45;;;;;;;5.63;3.40;;;;;;;;;;5053527;28;20060;-70
2022/09/07 02:33:12;;;;;;;5.43;3.42;;;;;;;;;;5053456;28;20045;-70
2022/09/07 02:35:38;;;;;;;4.68;3.17;;;;;;;;;;5035884;28;20057;-70
2022/09/07 02:38:05;;;;;;;4.85;3.15;;;;;;;;;;5053132;28;20080;-70
2022/09/07 02:40:32;;;;;;;6.13;3.63;;;;;;;;;;5053391;28;20052;-70
2022/09/07 02:43:01;;;;;;;7.18;3.47;;;;;;;;;;5053395;28;20491;-69
2022/09/07 02:46:17;;;;;;;4.18;2.95;;;;;;;;;;5019755;28;20279;-69
2022/09/07 02:48:50;;;;;;;4.45;3.13;;;;;;;;;;5027056;28;20053;-69
2022/09/07 02:51:22;;;;;;;3.60;3.30;;;;;;;;;;5053128;28;20122;-69
2022/09/07 02:53:59;;;;;;;6.83;3.00;;;;;;;;;;5035543;28;20041;-69
2022/09/07 02:57:07;;;;;;;4.30;3.28;;;;;;;;;;5052509;28;20060;-69
2022/09/07 02:59:58;;;;;;;5.40;2.80;;;;;;;;;;5042193;28;20048;-69
2022/09/07 03:02:32;;;;;;;5.65;2.67;;;;;;;;;;5052721;28;20057;-69
2022/09/07 03:05:04;;;;;;;4.05;2.85;;;;;;;;;;5052744;28;20144;-69
2022/09/07 03:07:37;;;;;;;6.60;3.85;;;;;;;;;;5035266;28;20057;-69
2022/09/07 03:10:12;;;;;;;4.93;3.28;;;;;;;;;;5036300;28;20106;-69
2022/09/07 03:12:40;;;;;;;6.35;3.38;;;;;;;;;;5035103;28;20057;-69
2022/09/07 03:15:12;;;;;;;10.65;3.47;;;;;;;;;;5052963;28;20467;-69
2022/09/07 03:17:39;;;;;;;6.13;2.80;;;;;;;;;;5035764;28;20064;-69
2022/09/07 03:20:06;;;;;;;3.85;2.40;;;;;;;;;;5018452;28;20103;-67
2022/09/07 03:22:33;;;;;;;4.85;2.50;;;;;;;;;;5052434;28;20107;-67
2022/09/07 03:25:00;;;;;;;5.35;2.40;;;;;;;;;;5052435;28;20053;-67
2022/09/07 03:27:27;;;;;;;4.30;2.70;;;;;;;;;;5034666;28;20060;-67
2022/09/07 03:29:54;;;;;;;3.47;2.10;;;;;;;;;;5034767;28;20415;-67
2022/09/07 03:32:20;;;;;;;4.43;2.28;;;;;;;;;;5052579;28;20427;-68
2022/09/07 03:34:47;;;;;;;5.45;2.30;;;;;;;;;;5052512;28;20052;-68
2022/09/07 03:37:14;;;;;;;6.90;3.17;;;;;;;;;;5052202;28;20056;-68
2022/09/07 03:39:40;;;;;;;5.93;2.35;;;;;;;;;;5052145;28;20053;-68
2022/09/07 03:42:07;;;;;;;4.57;2.47;;;;;;;;;;5034706;28;20057;-68
2022/09/07 03:44:33;;;;;;;3.38;2.22;;;;;;;;;;5052036;28;20045;-68
2022/09/07 03:47:00;;;;;;;5.68;2.30;;;;;;;;;;5052421;28;20057;-68
2022/09/07 03:49:27;;;;;;;3.40;2.25;;;;;;;;;;5034261;28;20064;-68
2022/09/07 03:51:53;;;;;;;7.38;2.80;;;;;;;;;;5052043;28;20049;-68
2022/09/07 03:54:21;;;;;;;3.72;2.17;;;;;;;;;;5052005;28;20052;-68
2022/09/07 03:56:47;;;;;;;6.75;2.78;;;;;;;;;;5034964;28;20049;-68
2022/09/07 03:59:14;;;;;;;4.15;2.38;;;;;;;;;;5051914;28;20048;-68
2022/09/07 04:01:40;;;;;;;7.63;2.45;;;;;;;;;;5052354;28;20095;-68
2022/09/07 04:04:07;;;;;;;4.82;2.60;;;;;;;;;;5051950;28;20085;-68
2022/09/07 04:06:34;;;;;;;3.45;2.47;;;;;;;;;;5034611;28;20059;-68
2022/09/07 04:09:02;;;;;;;2.90;2.42;;;;;;;;;;5055617;28;20123;-68
2022/09/07 04:11:30;;;;;;;6.28;2.95;;;;;;;;;;5056352;28;20056;-68
2022/09/07 04:13:57;;;;;;;5.13;2.35;;;;;;;;;;5056277;28;20060;-68
2022/09/07 04:16:25;;;;;;;5.72;2.58;;;;;;;;;;5055839;28;20048;-68
2022/09/07 04:18:53;;;;;;;4.05;2.90;;;;;;;;;;5055657;28;20055;-68
2022/09/07 04:21:21;;;;;;;4.47;2.40;;;;;;;;;;5056260;28;20106;-68
2022/09/07 04:23:48;;;;;;;5.10;2.40;;;;;;;;;;5055593;28;20049;-68
2022/09/07 04:26:18;;;;;;;5.22;2.80;;;;;;;;;;5056044;28;20053;-68
2022/09/07 04:28:45;;;;;;;3.30;2.78;;;;;;;;;;5055574;28;20503;-68
2022/09/07 04:31:14;;;;;;;6.07;3.08;;;;;;;;;;5055718;28;20061;-68
2022/09/07 04:33:42;;;;;;;3.80;2.63;;;;;;;;;;5055950;28;20052;-68
2022/09/07 04:36:09;;;;;;;5.35;2.50;;;;;;;;;;5055489;28;20436;-68
2022/09/07 04:38:35;;;;;;;3.53;2.70;;;;;;;;;;5038033;28;20492;-68
2022/09/07 04:41:08;;;;;;;4.30;2.95;;;;;;;;;;5055712;28;20049;-68
2022/09/07 04:43:36;;;;;;;4.25;3.15;;;;;;;;;;5055818;28;20504;-68
2022/09/07 04:46:26;;;;;;;5.50;3.00;;;;;;;;;;5055424;28;20045;-68
2022/09/07 04:48:55;;;;;;;4.18;2.95;;;;;;;;;;5055236;28;20049;-68
2022/09/07 04:51:23;;;;;;;3.92;2.80;;;;;;;;;;5055482;28;20118;-68
2022/09/07 04:53:50;;;;;;;6.40;2.92;;;;;;;;;;5055260;28;20053;-68
2022/09/07 04:56:18;;;;;;;9.02;2.85;;;;;;;;;;5059560;28;20073;-68
2022/09/07 04:58:45;;;;;;;6.57;2.75;;;;;;;;;;5067446;28;20114;-68
2022/09/07 05:01:18;;;;;;;7.55;3.08;;;;;;;;;;5058741;28;20052;-68
2022/09/07 05:03:45;;;;;;;5.32;3.13;;;;;;;;;;5055016;28;20456;-68
2022/09/07 05:06:12;;;;;;;5.75;3.40;;;;;;;;;;5037573;28;20458;-68
2022/09/07 05:08:41;;;;;;;7.68;3.80;;;;;;;;;;5054581;28;20049;-68
2022/09/07 05:11:09;;;;;;;6.25;3.58;;;;;;;;;;5055150;28;20059;-68
2022/09/07 05:13:36;;;;;;;9.48;4.07;;;;;;;;;;5054839;28;20045;-68
2022/09/07 05:16:16;;;;;;;8.02;4.07;;;;;;;;;;5054985;28;20053;-69
2022/09/07 05:18:43;;;;;;;6.35;3.65;;;;;;;;;;5053644;28;20546;-68
2022/09/07 05:21:11;;;;;;;7.50;3.70;;;;;;;;;;5054654;28;20053;-68
2022/09/07 05:23:38;;;;;;;4.85;3.72;;;;;;;;;;5054932;28;20049;-68
2022/09/07 05:26:05;;;;;;;7.00;4.40;;;;;;;;;;5036838;28;20095;-68
2022/09/07 05:28:33;;;;;;;4.95;4.25;;;;;;;;;;5054200;28;20051;-68
2022/09/07 05:31:04;;;;;;;7.95;4.00;;;;;;;;;;5054374;28;20056;-68
2022/09/07 05:33:51;;;;;;;4.20;3.70;;;;;;;;;;5054657;28;20048;-68
2022/09/07 05:36:38;;;;;;;6.28;3.80;;;;;;;;;;5054143;28;20110;-68
2022/09/07 05:39:05;;;;;;;7.13;4.53;;;;;;;;;;5054191;28;20057;-68
2022/09/07 05:41:32;;;;;;;5.38;3.85;;;;;;;;;;5054271;28;20496;-68
2022/09/07 05:43:58;;;;;;;6.07;4.13;;;;;;;;;;5054317;28;20392;-68
2022/09/07 05:46:45;;;;;;;8.52;4.18;;;;;;;;;;5054047;28;20095;-68
2022/09/07 05:49:12;;;;;;;4.13;3.63;;;;;;;;;;5054388;28;20053;-69
2022/09/07 05:51:38;;;;;;;8.20;4.03;;;;;;;;;;5053949;28;20053;-68
2022/09/07 05:54:05;;;;;;;5.90;3.58;;;;;;;;;;5053866;28;20530;-69
2022/09/07 05:56:35;;;;;;;4.38;2.90;;;;;;;;;;5054139;28;20056;-69
2022/09/07 05:59:02;;;;;;;9.00;3.53;;;;;;;;;;5053714;28;20132;-68
2022/09/07 06:01:28;;;;;;;5.85;3.53;;;;;;;;;;5053754;28;20052;-69
2022/09/07 06:03:55;;;;;;;7.22;3.63;;;;;;;;;;5053684;28;20052;-69
2022/09/07 06:06:22;;;;;;;5.93;3.10;;;;;;;;;;5053995;28;20053;-69
2022/09/07 06:08:51;;;;;;;7.10;4.20;;;;;;;;;;5053497;28;20132;-69
2022/09/07 06:11:19;;;;;;;9.15;4.35;;;;;;;;;;5053724;28;20057;-69
2022/09/07 06:13:47;;;;;;;7.03;3.70;;;;;;;;;;5035899;28;20053;-69
2022/09/07 06:16:14;;;;;;;6.07;4.03;;;;;;;;;;5053230;28;20397;-69
2022/09/07 06:18:42;;;;;;;4.97;3.55;;;;;;;;;;5053404;28;20059;-69
2022/09/07 06:21:10;;;;;;;11.93;4.13;;;;;;;;;;5053617;28;20049;-69
2022/09/07 06:23:38;;;;;;;8.02;4.40;;;;;;;;;;5053305;28;20420;-69
2022/09/07 06:26:05;;;;;;;7.85;3.08;;;;;;;;;;5053493;28;20488;-69
2022/09/07 06:28:33;;;;;;;4.82;3.65;;;;;;;;;;5035439;28;20049;-69
2022/09/07 06:31:07;;;;;;;6.38;3.83;;;;;;;;;;5053506;28;20419;-69
2022/09/07 06:33:34;;;;;;;7.57;3.72;;;;;;;;;;5053825;28;20389;-69
2022/09/07 06:36:04;;;;;;;3.80;3.17;;;;;;;;;;5053334;28;20052;-68
2022/09/07 06:38:32;;;;;;;7.45;3.65;;;;;;;;;;5053092;28;20446;-69
2022/09/07 06:41:03;;;;;;;10.80;3.97;;;;;;;;;;5053294;28;20052;-68
2022/09/07 06:43:49;;;;;;;8.00;3.70;;;;;;;;;;5053084;28;20130;-68
2022/09/07 06:46:16;;;;;;;5.07;3.00;;;;;;;;;;5053333;28;20098;-68
2022/09/07 06:49:03;;;;;;;5.63;3.33;;;;;;;;;;5052730;28;20052;-69
2022/09/07 06:51:30;;;;;;;8.10;2.63;;;;;;;;;;5053003;28;20393;-68
2022/09/07 06:54:00;;;;;;;6.50;2.85;;;;;;;;;;5053036;28;20044;-68
2022/09/07 06:56:47;;;;;;;4.25;3.13;;;;;;;;;;5052902;28;20099;-69
2022/09/07 06:59:13;;;;;;;5.30;2.60;;;;;;;;;;5052551;28;20060;-68
2022/09/07 07:01:40;;;;;;;5.78;2.97;;;;;;;;;;5052786;28;20197;-68
2022/09/07 07:04:06;;;;;;;5.20;2.58;;;;;;;;;;5052483;28;20056;-68
2022/09/07 07:06:34;;;;;;;4.82;2.45;;;;;;;;;;5053080;28;20111;-70
2022/09/07 07:09:01;;;;;;;5.75;2.78;;;;;;;;;;5052754;28;20401;-69
2022/09/07 07:11:29;;;;;;;6.00;2.30;;;;;;;;;;5052695;28;20122;-69
2022/09/07 07:13:56;;;;;;;5.70;2.70;;;;;;;;;;5052761;28;20057;-68
2022/09/07 07:16:23;;;;;;;6.18;2.97;;;;;;;;;;5052337;28;20044;-68
2022/09/07 07:18:53;;;;;;;5.38;3.00;;;;;;;;;;5052446;28;20107;-68
2022/09/07 07:21:20;;;;;;;5.70;2.70;;;;;;;;;;5052567;28;20052;-68
2022/09/07 07:23:50;;;;;;;6.47;2.78;;;;;;;;;;5052582;28;20049;-68
2022/09/07 07:26:19;;;;;;;6.93;2.80;;;;;;;;;;5034660;28;20049;-68
2022/09/07 07:28:48;;;;;;;6.82;3.45;;;;;;;;;;5051946;28;20052;-68
2022/09/07 07:31:32;;;;;;;7.05;2.75;;;;;;;;;;5052682;28;20049;-68
2022/09/07 07:33:58;;;;;;;9.27;2.38;;;;;;;;;;5052454;28;20060;-68
2022/09/07 07:36:26;;;;;;;5.10;2.65;;;;;;;;;;5052263;28;20045;-68
2022/09/07 07:38:54;;;;;;;7.55;2.20;;;;;;;;;;5051867;28;20131;-68
2022/09/07 07:41:28;;;;;;;8.43;2.88;;;;;;;;;;5035088;28;20053;-68
2022/09/07 07:44:16;;;;;;;8.07;2.50;;;;;;;;;;5052083;28;20070;-68
2022/09/07 07:46:46;;;;;;;6.82;2.58;;;;;;;;;;5052336;28;20045;-68
2022/09/07 07:49:13;;;;;;;7.00;2.33;;;;;;;;;;5051725;28;20136;-68
2022/09/07 07:51:39;;;;;;;5.68;2.25;;;;;;;;;;5052193;28;20088;-68
2022/09/07 07:54:26;;;;;;;7.93;2.25;;;;;;;;;;5037227;28;20409;-68
2022/09/07 07:56:53;;;;;;;6.93;2.60;;;;;;;;;;5052338;28;20483;-69
2022/09/07 07:59:19;;;;;;;6.38;2.35;;;;;;;;;;5051830;28;20049;-68
2022/09/07 08:01:46;;;;;;;11.85;2.70;;;;;;;;;;5051981;28;20052;-68
2022/09/07 08:04:12;;;;;;;4.88;2.20;;;;;;;;;;5052180;28;20064;-68
2022/09/07 08:06:42;;;;;;;5.47;1.95;;;;;;;;;;5051902;28;20103;-69
2022/09/07 08:09:10;;;;;;;10.27;2.67;;;;;;;;;;5051954;28;20061;-68
2022/09/07 08:11:39;;;;;;;5.22;2.30;;;;;;;;;;5034385;28;20084;-68
2022/09/07 08:14:07;;;;;;;8.40;2.30;;;;;;;;;;5051845;28;20049;-68
2022/09/07 08:16:34;;;;;;;8.07;2.42;;;;;;;;;;5034606;28;20041;-68
2022/09/07 08:19:01;;;;;;;7.40;2.90;;;;;;;;;;5051505;28;20081;-68
2022/09/07 08:21:28;;;;;;;5.60;2.78;;;;;;;;;;5052055;28;20085;-68
2022/09/07 08:23:55;;;;;;;9.25;2.20;;;;;;;;;;5051686;28;20115;-69
2022/09/07 08:26:22;;;;;;;7.72;1.70;;;;;;;;;;5051697;28;20085;-69
2022/09/07 08:28:48;;;;;;;6.07;2.60;;;;;;;;;;5051408;28;20102;-69
2022/09/07 08:31:15;;;;;;;5.85;1.80;;;;;;;;;;5051587;28;20088;-69
2022/09/07 08:33:42;;;;;;;7.03;1.95;;;;;;;;;;5051552;28;20067;-69
2022/09/07 08:36:11;;;;;;;3.13;1.85;;;;;;;;;;5051816;28;20083;-69
2022/09/07 08:38:39;;;;;;;8.20;1.77;;;;;;;;;;5034013;28;20049;-69
2022/09/07 08:41:25;;;;;;;6.25;2.22;;;;;;;;;;5051617;28;20511;-69
2022/09/07 08:43:56;;;;;;;5.07;1.92;;;;;;;;;;5051625;28;20141;-69
2022/09/07 08:46:28;;;;;;;9.32;2.83;;;;;;;;;;5051898;28;20556;-69
2022/09/07 08:48:55;;;;;;;5.65;2.08;;;;;;;;;;5034000;28;20504;-69
2022/09/07 08:51:31;;;;;;;5.05;1.83;;;;;;;;;;5034115;28;20049;-69
2022/09/07 08:53:58;;;;;;;4.22;1.92;;;;;;;;;;5019211;28;20053;-69
2022/09/07 08:56:29;;;;;;;7.47;1.88;;;;;;;;;;5055039;28;20111;-69
2022/09/07 08:58:59;;;;;;;4.85;1.80;;;;;;;;;;5055077;28;20132;-69
2022/09/07 09:01:29;;;;;;;6.68;2.38;;;;;;;;;;5021315;28;20091;-69
2022/09/07 09:03:57;;;;;;;6.75;1.70;;;;;;;;;;5037739;28;20411;-69
2022/09/07 09:07:02;;;;;;;3.30;2.28;;;;;;;;;;5039833;28;20048;-69
2022/09/07 09:09:38;;;;;;;5.13;1.58;;;;;;;;;;5054552;28;20049;-69
2022/09/07 09:12:25;;;;;;;5.10;2.35;;;;;;;;;;5054973;28;20131;-69
2022/09/07 09:15:00;;;;;;;6.28;1.90;;;;;;;;;;5021443;28;20095;-69
2022/09/07 09:17:58;;;;;;;4.45;1.58;;;;;;;;;;5054880;28;20076;-69
2022/09/07 09:20:57;;;;;;;4.75;1.60;;;;;;;;;;5037018;28;20073;-69
2022/09/07 09:23:26;;;;;;;6.55;1.83;;;;;;;;;;4994255;28;20044;-69
2022/09/07 09:25:58;;;;;;;5.32;1.73;;;;;;;;;;5054485;28;20579;-69
2022/09/07 09:28:25;;;;;;;8.02;2.35;;;;;;;;;;5037209;28;20072;-69
2022/09/07 09:30:57;;;;;;;4.93;2.20;;;;;;;;;;5054682;28;20099;-69
2022/09/07 09:33:25;;;;;;;4.75;1.50;;;;;;;;;;5054426;28;20136;-69
2022/09/07 09:35:56;;;;;;;5.25;1.88;;;;;;;;;;5036643;28;20069;-69
2022/09/07 09:38:33;;;;;;;10.00;2.42;;;;;;;;;;5020490;28;20566;-69
2022/09/07 09:41:04;;;;;;;8.30;2.13;;;;;;;;;;5054524;28;20488;-69
2022/09/07 09:43:44;;;;;;;4.93;1.60;;;;;;;;;;5054208;28;20500;-69
2022/09/07 09:46:23;;;;;;;5.68;2.42;;;;;;;;;;5054284;28;20041;-69
2022/09/07 09:48:57;;;;;;;7.55;2.00;;;;;;;;;;5053552;28;20049;-69
2022/09/07 09:51:24;;;;;;;7.55;2.17;;;;;;;;;;5020198;28;20084;-69
2022/09/07 09:54:23;;;;;;;7.95;2.00;;;;;;;;;;5025360;28;20049;-69
2022/09/07 09:56:51;;;;;;;5.78;1.90;;;;;;;;;;5053774;28;20084;-69
2022/09/07 09:59:17;;;;;;;5.95;1.92;;;;;;;;;;5053592;28;20052;-69
2022/09/07 10:02:36;;;;;;;7.25;2.30;;;;;;;;;;5053528;28;20049;-69
2022/09/07 10:05:33;;;;;;;6.80;2.03;;;;;;;;;;5006518;28;20049;-69
2022/09/07 10:07:59;;;;;;;6.50;1.83;;;;;;;;;;5035703;28;20144;-69
2022/09/07 10:10:26;;;;;;;6.95;1.83;;;;;;;;;;5053812;28;20148;-69
2022/09/07 10:12:53;;;;;;;6.63;2.10;;;;;;;;;;5036303;28;20486;-69
2022/09/07 10:15:30;;;;;;;6.70;2.60;;;;;;;;;;5035772;28;20136;-69
2022/09/07 10:18:05;;;;;;;4.40;1.87;;;;;;;;;;5036860;28;20051;-69
2022/09/07 10:20:34;;;;;;;5.75;2.28;;;;;;;;;;5019632;28;20057;-69
2022/09/07 10:23:01;;;;;;;4.53;1.92;;;;;;;;;;5035869;28;20049;-69
2022/09/07 10:25:31;;;;;;;7.10;2.40;;;;;;;;;;5035724;28;20052;-69
2022/09/07 10:28:01;;;;;;;6.53;2.33;;;;;;;;;;5053169;28;20103;-69
2022/09/07 10:30:29;;;;;;;7.40;2.53;;;;;;;;;;5053235;28;20144;-69
2022/09/07 10:33:05;;;;;;;4.50;1.70;;;;;;;;;;5035740;28;20507;-69
2022/09/07 10:35:44;;;;;;;3.95;2.03;;;;;;;;;;5035815;28;20082;-69
2022/09/07 10:38:18;;;;;;;3.90;1.80;;;;;;;;;;5019449;28;20483;-69
2022/09/07 10:41:07;;;;;;;5.15;1.80;;;;;;;;;;5053104;28;20138;-69
2022/09/07 10:43:41;;;;;;;7.78;2.55;;;;;;;;;;5035629;28;20470;-70
2022/09/07 10:46:20;;;;;;;3.75;1.80;;;;;;;;;;5035781;28;20135;-69
2022/09/07 10:49:12;;;;;;;5.28;1.83;;;;;;;;;;5052311;28;20135;-69
2022/09/07 10:52:02;;;;;;;;;;;;;;;;;;5053429;28;20586;-69
2022/09/07 10:54:32;;;;;;;6.32;2.08;;;;;;;;;;5045045;28;19924;-69
2022/09/07 10:57:08;;;;;;;5.25;2.30;;;;;;;;;;5052876;28;20524;-69
2022/09/07 10:59:47;;;;;;;7.07;2.80;;;;;;;;;;5052543;28;20049;-69
2022/09/07 11:02:52;;;;;;;5.22;2.03;;;;;;;;;;5052626;28;20129;-69
2022/09/07 11:05:53;;;;;;;4.97;1.85;;;;;;;;;;5052136;28;20132;-69
2022/09/07 11:08:26;;;;;;;5.20;2.47;;;;;;;;;;5052678;28;20095;-69
2022/09/07 11:11:20;;;;;;;4.55;1.85;;;;;;;;;;5052752;28;20396;-69
2022/09/07 11:14:15;;;;;;;6.72;2.42;;;;;;;;;;5052462;28;20049;-69
2022/09/07 11:16:54;;;;;;;5.57;2.20;;;;;;;;;;5018581;28;20045;-69
2022/09/07 11:19:36;;;;;;;6.97;2.10;;;;;;;;;;5019437;28;20087;-69
2022/09/07 11:22:13;;;;;;;6.28;2.38;;;;;;;;;;5052675;28;20063;-69
2022/09/07 11:24:48;;;;;;;5.97;2.20;;;;;;;;;;5019632;28;20049;-69
2022/09/07 11:28:12;;;;;;;8.07;2.13;;;;;;;;;;5038613;28;20044;-69
2022/09/07 11:30:47;;;;;;;6.63;1.85;;;;;;;;;;5010857;28;20420;-69
2022/09/07 11:33:20;;;;;;;4.22;1.88;;;;;;;;;;5052497;28;20049;-69
2022/09/07 11:36:12;;;;;;;8.07;1.88;;;;;;;;;;5034767;28;20124;-69
2022/09/07 11:38:48;;;;;;;5.30;1.77;;;;;;;;;;5027979;28;20122;-69
2022/09/07 11:41:38;;;;;;;7.95;1.90;;;;;;;;;;5052286;28;20080;-69
2022/09/07 11:44:25;;;;;;;6.10;1.75;;;;;;;;;;5052443;28;20049;-69
2022/09/07 11:47:02;;;;;;;5.63;1.40;;;;;;;;;;5038353;28;20081;-69
2022/09/07 11:49:29;;;;;;;6.20;1.85;;;;;;;;;;5018541;28;20091;-70
2022/09/07 11:51:56;;;;;;;6.40;1.95;;;;;;;;;;5052227;28;20052;-70
2022/09/07 11:54:57;;;;;;;8.05;2.22;;;;;;;;;;5052134;28;20415;-70
2022/09/07 11:57:46;;;;;;;7.93;2.13;;;;;;;;;;5034296;28;20049;-70
2022/09/07 12:00:23;;;;;;;4.32;1.80;;;;;;;;;;5038129;28;20121;-70
2022/09/07 12:02:56;;;;;;;4.75;1.55;;;;;;;;;;5052077;28;20807;-70
2022/09/07 12:06:09;;;;;;;6.50;2.03;;;;;;;;;;5034450;28;20060;-70
2022/09/07 12:08:38;;;;;;;3.83;1.33;;;;;;;;;;5023663;28;20044;-70
2022/09/07 12:11:29;;;;;;;3.50;1.50;;;;;;;;;;5034204;28;20136;-70
2022/09/07 12:14:24;;;;;;;3.90;1.52;;;;;;;;;;5034520;28;20080;-69
2022/09/07 12:16:59;;;;;;;2.72;1.30;;;;;;;;;;5051781;28;20504;-69
2022/09/07 12:19:26;;;;;;;5.25;2.22;;;;;;;;;;5051397;28;20089;-69
2022/09/07 12:21:55;;;;;;;3.58;1.60;;;;;;;;;;5034294;28;20102;-69
2022/09/07 12:24:32;;;;;;;5.47;1.88;;;;;;;;;;5018080;28;20053;-69
2022/09/07 12:27:08;;;;;;;5.60;1.50;;;;;;;;;;5034401;28;20088;-69
2022/09/07 12:29:35;;;;;;;3.85;1.52;;;;;;;;;;5038390;28;20088;-69
2022/09/07 12:32:02;;;;;;;4.25;1.30;;;;;;;;;;5021765;28;20099;-70
2022/09/07 12:34:54;;;;;;;4.90;1.95;;;;;;;;;;5041006;28;20562;-70
2022/09/07 12:37:36;;;;;;;4.03;1.40;;;;;;;;;;5021876;28;20106;-70
2022/09/07 12:40:28;;;;;;;4.68;1.40;;;;;;;;;;5037642;28;20572;-70
2022/09/07 12:43:15;;;;;;;5.18;1.45;;;;;;;;;;5055792;28;20076;-70
2022/09/07 12:45:47;;;;;;;4.15;1.65;;;;;;;;;;5055240;28;20048;-70
2022/09/07 12:48:14;;;;;;;5.28;1.67;;;;;;;;;;5055495;28;20059;-70
2022/09/07 12:50:57;;;;;;;3.45;1.25;;;;;;;;;;5055305;28;20049;-70
2022/09/07 12:53:39;;;;;;;4.38;1.27;;;;;;;;;;5055514;28;20057;-70
2022/09/07 12:56:27;;;;;;;3.75;1.15;;;;;;;;;;5055018;28;20135;-70
2022/09/07 12:59:00;;;;;;;2.53;1.00;;;;;;;;;;5055160;28;20055;-70
2022/09/07 13:01:44;;;;;;;2.90;1.00;;;;;;;;;;5055343;28;20404;-70
2022/09/07 13:04:36;;;;;;;3.15;1.65;;;;;;;;;;5055134;28;20045;-70
2022/09/07 13:07:32;;;;;;;2.55;1.20;;;;;;;;;;5022856;28;20095;-70
2022/09/07 13:10:25;;;;;;;3.17;1.00;;;;;;;;;;5053028;28;20106;-70
2022/09/07 13:12:52;;;;;;;4.57;1.10;;;;;;;;;;5018220;28;20107;-70
2022/09/07 13:15:37;;;;;;;5.43;1.10;;;;;;;;;;5054673;28;20052;-70
2022/09/07 13:18:03;;;;;;;;;;;;;;;;;;5055200;28;20564;-70
2022/09/07 13:20:31;;;;;;;4.22;1.30;;;;;;;;;;5054694;28;19924;-70
2022/09/07 13:23:21;;;;;;;2.65;1.10;;;;;;;;;;5037937;28;20428;-70
2022/09/07 13:25:49;;;;;;;1.80;1.08;;;;;;;;;;5039052;28;20045;-69
2022/09/07 13:28:49;;;;;;;2.20;1.17;;;;;;;;;;5037035;28;20045;-69
2022/09/07 13:31:43;;;;;;;4.88;1.23;;;;;;;;;;5036960;28;20053;-69
2022/09/07 13:34:32;;;;;;;4.95;1.33;;;;;;;;;;5023387;28;20059;-69
2022/09/07 13:37:19;;;;;;;3.70;1.20;;;;;;;;;;5054230;28;20049;-69
2022/09/07 13:39:47;;;;;;;2.92;0.85;;;;;;;;;;5053232;28;20136;-69
2022/09/07 13:42:16;;;;;;;4.13;1.40;;;;;;;;;;5036943;28;20053;-70
2022/09/07 13:44:50;;;;;;;3.85;0.93;;;;;;;;;;5020370;28;20124;-70
2022/09/07 13:47:16;;;;;;;3.58;1.38;;;;;;;;;;5021174;28;20128;-70
2022/09/07 13:50:06;;;;;;;1.77;1.08;;;;;;;;;;5053958;28;20052;-69
2022/09/07 13:52:58;;;;;;;2.83;1.15;;;;;;;;;;5053844;28;20084;-69
2022/09/07 13:55:24;;;;;;;;;;;;;;;;;;5037103;28;20467;-69
2022/09/07 13:58:13;;;;;;;1.92;1.05;;;;;;;;;;5054071;28;20371;-69
2022/09/07 14:01:02;;;;;;;3.67;1.10;;;;;;;;;;5036172;28;20539;-69
2022/09/07 14:03:46;;;;;;;4.47;1.33;;;;;;;;;;5020323;28;20045;-69
2022/09/07 14:06:19;;;;;;;3.83;1.17;;;;;;;;;;5038626;28;20053;-69
2022/09/07 14:08:53;;;;;;;3.25;1.00;;;;;;;;;;5053371;28;20087;-69
2022/09/07 14:11:22;;;;;;;2.95;1.40;;;;;;;;;;5053685;28;20139;-69
2022/09/07 14:14:08;;;;;;;3.97;1.20;;;;;;;;;;5054015;28;20049;-69
2022/09/07 14:16:34;;;;;;;3.15;1.20;;;;;;;;;;5053603;28;20491;-69
2022/09/07 14:19:07;;;;;;;7.22;1.42;;;;;;;;;;5053486;28;20057;-69
2022/09/07 14:21:34;;;;;;;5.40;1.85;;;;;;;;;;5020315;28;20103;-69
2022/09/07 14:24:02;;;;;;;2.30;1.17;;;;;;;;;;5036057;28;20088;-69
2022/09/07 14:26:28;;;;;;;5.45;1.42;;;;;;;;;;5053815;28;20563;-69
2022/09/07 14:28:55;;;;;;;7.82;1.40;;;;;;;;;;5053507;28;20053;-69
2022/09/07 14:31:23;;;;;;;2.80;1.00;;;;;;;;;;5035557;28;20048;-69
2022/09/07 14:33:52;;;;;;;6.65;1.40;;;;;;;;;;5035409;28;20422;-69
2022/09/07 14:36:19;;;;;;;1.67;1.23;;;;;;;;;;5053740;28;20106;-69
2022/09/07 14:39:07;;;;;;;2.63;1.23;;;;;;;;;;5038045;28;20059;-69
2022/09/07 14:41:37;;;;;;;1.55;0.98;;;;;;;;;;5035801;28;20049;-69
2022/09/07 14:44:03;;;;;;;3.90;1.38;;;;;;;;;;5035790;28;20520;-69
2022/09/07 14:46:34;;;;;;;2.25;1.10;;;;;;;;;;5052896;28;20080;-69
2022/09/07 14:49:03;;;;;;;2.88;1.13;;;;;;;;;;5019635;28;20542;-69
2022/09/07 14:51:31;;;;;;;3.58;1.20;;;;;;;;;;5018777;28;20073;-69
2022/09/07 14:54:06;;;;;;;3.45;1.80;;;;;;;;;;5052783;28;20135;-69
2022/09/07 14:56:35;;;;;;;2.75;1.10;;;;;;;;;;5035354;28;20471;-69
2022/09/07 14:59:19;;;;;;;3.22;1.80;;;;;;;;;;5052366;28;20084;-69
2022/09/07 15:01:46;;;;;;;5.10;1.50;;;;;;;;;;5021134;28;20048;-68
2022/09/07 15:04:17;;;;;;;2.42;1.10;;;;;;;;;;5052933;28;20048;-68
2022/09/07 15:06:45;;;;;;;4.07;1.30;;;;;;;;;;5035329;28;20122;-69
2022/09/07 15:09:35;;;;;;;6.63;1.23;;;;;;;;;;5052319;28;20077;-68
2022/09/07 15:12:09;;;;;;;3.08;1.20;;;;;;;;;;5019989;28;20091;-69
2022/09/07 15:14:36;;;;;;;1.90;1.33;;;;;;;;;;5064347;28;20049;-69
2022/09/07 15:17:02;;;;;;;2.90;1.20;;;;;;;;;;5042853;28;20460;-69
2022/09/07 15:19:49;;;;;;;3.33;1.40;;;;;;;;;;5052039;28;20044;-69
2022/09/07 15:22:20;;;;;;;2.75;1.50;;;;;;;;;;5052735;28;20052;-70
2022/09/07 15:24:48;;;;;;;11.15;2.28;;;;;;;;;;5052681;28;20045;-70